Montpezat d'Agenais

FR-0411 · Lot-et-Garonne, Nouvelle-Aquitaine, 法国

罗盘
风向 的 风向 的 风向 到 风向 230°
风: 7 kt, 3 beaufort

添加一条跑道以查看侧风和逆风信息。

添置 跑道
0 2.000 4.000 6.000 8.000 10.000
BKN 3.500 ft
BKN 4.500 ft
BKN 5.200 ft
N/A
SPECI LFBA 281200Z AUTO 23007KT 200V290 9999 BKN035/// BKN045/// BKN052/// //////CB 14/10 Q1018 NOSIG

METAR Montpezat d'Agenais - FR-0411

Montpezat d'Agenais是,法国中的小机场。 视场标高为120 ft。 该领域的国际民航组织标志是FR-0411.

这份报告是针对2022年11月28日 13:00, 当地时间在Agen-La Garenne Airport进行的。

机场观察

风向为230°,速度为7 kt。 风向在200°和290°之间变化。

可见度为10 km 或者更多。

有碎云在3.500 ft的高度, 碎云在4.500 ft的高度, 碎云在5.200 ft的高度 和 。 破损或更高的上限为3.500 ft。

温度和风寒是14 °C。 露点为10 °C,相对湿度为77%。 海平面上的气压为1018 hPa (QNH)。

白天

今天,太阳从08:10升起,在17:21降落。 这适用于Montpezat d'Agenais,世界夏令时可能有所不同。 当地时间与世界标准时间之间的时差为+1 小时。 当前,没有夏令时有效。

公司介绍

我们没有关于这个机场的公司信息。

体会

到Vliegles.nl去找飞行课程,跳伞和其他飞行体验。 浏览页面,了解Montpezat d'Agenais附近所有可用的活动。 你也可以使用搜索功能来寻找你所在地附近的特定飞行课程、跳伞或其他飞行体验。

乌云

3.500 ft BKN 碎云
4.500 ft BKN 碎云
5.200 ft BKN 碎云
0 ft

温度 & 天气

温度 14 °C
露点 10 °C
相对湿度 77%
Kp-index 0 (0-9)

白天

日出
08:09
中午
12:45
日落
17:21 (3:50)

小工具

你想在你的网站上有一个关于Montpezat d'Agenais的当前航空天气(METAR)的小部件吗?

显示HTML代码

我们和第三方通过cookies跟踪您在我们网站上的互联网行为。如果你继续,我们认为你同意我们的饼干政策